Impacts TAF Board
For situational awareness. Not to be used for flight planning purposes.
IDs:

KCVG - Cincinnati Intl, KY, US

Issued at 2333 UTC 18 Feb 2019
Updated at 0342 UTC 19 Feb 2019
Potential Impact None Slight Moderate High
Time<<20/04Z 20/05Z 20/06Z 20/07Z 20/08Z 20/09Z 20/10Z 20/11Z 20/12Z 20/13Z 20/14Z 20/15Z 20/16Z
Type PRVL PRVL
VIS 4 4
CIG 25 25
Cover OVC OVC
FltCat MVFR MVFR
WX -SN -SN
WDir 90 90
WSpd 8 8
WGst -- --
Raw TAF
KCVG 182333Z 1900/2006 31010KT P6SM VCSH OVC035
  FM190200 33008KT P6SM BKN035
  FM190500 03004KT P6SM SCT250
  FM191400 09008KT P6SM SCT250
  FM191900 07007KT P6SM BKN250
  FM200400 09008KT 4SM -SN OVC025


METAR Board
Radar Display
Forecast Discussion
For situational awareness. Not to be used for flight planning purposes.